createdAt,value
2018-05-02T00:00:17.806Z,53.23
2018-05-02T00:02:46.275Z,53.40
2018-05-02T00:05:14.155Z,54.03
2018-05-02T00:07:42.319Z,52.60
2018-05-02T00:10:10.491Z,52.20
2018-05-02T00:12:39.603Z,46.07
2018-05-02T00:15:09.715Z,50.77
2018-05-02T00:17:37.701Z,50.83
2018-05-02T00:20:05.664Z,47.60
2018-05-02T00:22:33.643Z,47.17
2018-05-02T00:25:01.755Z,48.57
2018-05-02T00:27:33.112Z,43.97
2018-05-02T00:30:01.168Z,41.90
2018-05-02T00:32:28.726Z,41.27
2018-05-02T00:34:57.299Z,39.93
2018-05-02T00:37:27.485Z,38.50
2018-05-02T00:39:57.371Z,40.03
2018-05-02T00:42:29.510Z,39.90
2018-05-02T00:45:00.301Z,36.87
2018-05-02T00:47:30.008Z,37.20
2018-05-02T00:49:58.723Z,35.80
2018-05-02T00:52:27.418Z,37.57
2018-05-02T00:54:56.683Z,34.83
2018-05-02T00:57:25.583Z,35.90
2018-05-02T00:59:54.080Z,33.10
2018-05-02T01:02:22.638Z,34.63
2018-05-02T01:04:51.481Z,34.13
2018-05-02T01:07:21.962Z,37.07
2018-05-02T01:09:53.309Z,35.07
2018-05-02T01:12:22.483Z,36.43
2018-05-02T01:14:51.641Z,36.03
2018-05-02T01:17:20.550Z,37.33
2018-05-02T01:19:51.285Z,34.60
2018-05-02T01:22:19.534Z,34.63
2018-05-02T01:24:49.699Z,34.47
2018-05-02T01:27:20.961Z,34.50
2018-05-02T01:29:49.858Z,33.40
2018-05-02T01:32:19.044Z,33.00
2018-05-02T01:34:46.975Z,33.17
2018-05-02T01:37:16.633Z,33.97
2018-05-02T01:39:44.970Z,32.77
2018-05-02T01:42:13.709Z,32.20
2018-05-02T01:44:42.761Z,30.80
2018-05-02T01:47:11.036Z,33.90
2018-05-02T01:49:40.015Z,32.70
2018-05-02T01:52:12.635Z,30.90
2018-05-02T01:54:44.158Z,33.00
2018-05-02T01:57:13.197Z,30.30
2018-05-02T01:59:41.482Z,32.67
2018-05-02T02:02:09.607Z,31.40
2018-05-02T02:04:37.511Z,31.60
2018-05-02T02:07:06.326Z,31.73
2018-05-02T02:09:34.496Z,30.87
2018-05-02T02:12:04.810Z,29.40
2018-05-02T02:14:34.371Z,29.67
2018-05-02T02:17:03.149Z,31.07
2018-05-02T02:19:32.925Z,31.37
2018-05-02T02:22:01.047Z,28.40
2018-05-02T02:24:30.194Z,28.53
2018-05-02T02:26:58.547Z,28.47
2018-05-02T02:29:26.393Z,29.90
2018-05-02T02:31:56.215Z,26.60
2018-05-02T02:34:25.275Z,28.20
2018-05-02T02:36:55.602Z,27.00
2018-05-02T02:39:24.647Z,26.50
2018-05-02T02:41:53.177Z,28.70
2018-05-02T02:44:21.592Z,29.00
2018-05-02T02:46:50.808Z,28.70
2018-05-02T02:49:19.668Z,28.10
2018-05-02T02:51:48.180Z,29.00
2018-05-02T02:54:16.764Z,26.67
2018-05-02T02:56:44.918Z,26.47
2018-05-02T02:59:14.868Z,28.00
2018-05-02T03:01:42.677Z,28.50
2018-05-02T03:04:11.371Z,27.60
2018-05-02T03:06:40.753Z,27.77
2018-05-02T03:09:10.298Z,26.93
2018-05-02T03:11:39.072Z,26.73
2018-05-02T03:14:08.747Z,26.20
2018-05-02T03:16:36.821Z,26.27
2018-05-02T03:19:06.962Z,27.30
2018-05-02T03:21:36.600Z,27.90
2018-05-02T03:24:04.428Z,27.80
2018-05-02T03:26:33.582Z,25.00
2018-05-02T03:29:01.328Z,24.83
2018-05-02T03:31:29.371Z,24.93
2018-05-02T03:33:58.228Z,25.87
2018-05-02T03:36:27.176Z,23.97
2018-05-02T03:38:56.282Z,23.63
2018-05-02T03:41:24.379Z,25.10
2018-05-02T03:43:53.170Z,22.53
2018-05-02T03:46:21.895Z,23.60
2018-05-02T03:48:50.403Z,20.90
2018-05-02T03:51:19.988Z,21.83
2018-05-02T03:53:47.837Z,20.97
2018-05-02T03:56:15.693Z,20.17
2018-05-02T03:58:44.077Z,20.93
2018-05-02T04:01:12.043Z,22.00
2018-05-02T04:03:40.245Z,19.07
2018-05-02T04:06:10.117Z,19.27
2018-05-02T04:08:38.458Z,19.10
2018-05-02T04:11:07.959Z,19.53
2018-05-02T04:13:36.137Z,19.17
2018-05-02T04:16:04.735Z,18.30
2018-05-02T04:18:34.276Z,19.17
2018-05-02T04:21:02.265Z,17.70
2018-05-02T04:23:29.836Z,18.53
2018-05-02T04:25:57.778Z,18.30
2018-05-02T04:28:26.674Z,17.80
2018-05-02T04:30:54.701Z,16.27
2018-05-02T04:33:22.912Z,16.00
2018-05-02T04:35:50.570Z,16.90
2018-05-02T04:38:18.314Z,16.40
2018-05-02T04:40:47.983Z,15.33
2018-05-02T04:43:16.169Z,15.20
2018-05-02T04:45:44.253Z,15.67
2018-05-02T04:48:12.734Z,14.30
2018-05-02T04:50:42.087Z,15.83
2018-05-02T04:53:11.166Z,15.90
2018-05-02T04:55:40.308Z,14.70
2018-05-02T04:58:08.075Z,14.70
2018-05-02T05:00:36.055Z,14.97
2018-05-02T05:03:03.962Z,14.43
2018-05-02T05:05:31.624Z,14.57
2018-05-02T05:07:59.705Z,13.00
2018-05-02T05:10:27.569Z,14.67
2018-05-02T05:12:55.280Z,14.70
2018-05-02T05:15:23.193Z,14.20
2018-05-02T05:17:51.190Z,13.27
2018-05-02T05:20:21.283Z,14.40
2018-05-02T05:22:49.349Z,12.70
2018-05-02T05:25:17.159Z,13.90
2018-05-02T05:27:45.234Z,12.70
2018-05-02T05:30:13.218Z,13.33
2018-05-02T05:32:41.817Z,12.40
2018-05-02T05:35:10.792Z,12.37
2018-05-02T05:37:38.791Z,11.00
2018-05-02T05:40:07.156Z,11.33
2018-05-02T05:42:37.621Z,11.73
2018-05-02T05:45:05.935Z,11.47
2018-05-02T05:47:34.921Z,11.60
2018-05-02T05:50:03.520Z,11.60
2018-05-02T05:52:32.180Z,12.50
2018-05-02T05:55:00.267Z,11.30
2018-05-02T05:57:28.229Z,11.60
2018-05-02T05:59:56.087Z,10.37
2018-05-02T06:02:24.574Z,10.30
2018-05-02T06:04:52.332Z,10.93
2018-05-02T06:07:20.372Z,10.80
2018-05-02T06:09:49.181Z,10.57
2018-05-02T06:12:17.004Z,11.27
2018-05-02T06:14:44.778Z,10.50
2018-05-02T06:17:13.223Z,11.10
2018-05-02T06:19:41.327Z,11.27
2018-05-02T06:22:11.004Z,10.87
2018-05-02T06:24:39.281Z,10.77
2018-05-02T06:27:07.213Z,10.20
2018-05-02T06:29:35.065Z,11.53
2018-05-02T06:32:02.836Z,11.17
2018-05-02T06:34:31.504Z,10.37
2018-05-02T06:36:59.529Z,10.43
2018-05-02T06:39:28.383Z,9.67
2018-05-02T06:41:56.826Z,10.10
2018-05-02T06:44:24.495Z,9.83
2018-05-02T06:46:52.581Z,8.97
2018-05-02T06:49:21.448Z,10.03
2018-05-02T06:51:49.468Z,10.57
2018-05-02T06:54:18.080Z,10.57
2018-05-02T06:56:46.069Z,10.67
2018-05-02T06:59:13.913Z,9.10
2018-05-02T07:01:41.880Z,9.00
2018-05-02T07:04:09.607Z,10.30
2018-05-02T07:06:37.464Z,10.20
2018-05-02T07:09:05.440Z,9.50
2018-05-02T07:11:33.145Z,8.83
2018-05-02T07:14:01.146Z,9.63
2018-05-02T07:16:29.609Z,9.60
2018-05-02T07:18:58.329Z,10.10
2018-05-02T07:21:26.355Z,9.40
2018-05-02T07:23:54.400Z,9.83
2018-05-02T07:26:22.164Z,10.43
2018-05-02T07:28:50.177Z,9.33
2018-05-02T07:31:18.768Z,10.10
2018-05-02T07:33:46.777Z,10.10
2018-05-02T07:36:14.780Z,11.20
2018-05-02T07:38:42.705Z,10.33
2018-05-02T07:41:10.608Z,10.20
2018-05-02T07:43:39.112Z,9.27
2018-05-02T07:46:07.780Z,9.97
2018-05-02T07:48:35.706Z,9.57
2018-05-02T07:51:04.680Z,9.53
2018-05-02T07:53:32.700Z,10.07
2018-05-02T07:56:01.145Z,9.10
2018-05-02T07:58:28.967Z,9.87
2018-05-02T08:00:56.705Z,8.90
2018-05-02T08:03:24.991Z,9.53
2018-05-02T08:05:53.887Z,9.97
2018-05-02T08:08:21.562Z,8.97
2018-05-02T08:10:49.734Z,9.70
2018-05-02T08:13:18.511Z,10.00
2018-05-02T08:15:46.398Z,8.93
2018-05-02T08:18:14.773Z,10.30
2018-05-02T08:20:42.924Z,9.10
2018-05-02T08:23:11.534Z,10.00
2018-05-02T08:25:39.375Z,10.30
2018-05-02T08:28:07.751Z,9.03
2018-05-02T08:30:35.700Z,9.70
2018-05-02T08:33:03.482Z,10.30
2018-05-02T08:35:32.217Z,8.80
2018-05-02T08:38:00.745Z,9.93
2018-05-02T08:40:29.299Z,8.97
2018-05-02T08:42:57.657Z,9.40
2018-05-02T08:45:26.835Z,9.70
2018-05-02T08:47:54.634Z,9.70
2018-05-02T08:50:23.467Z,10.03
2018-05-02T08:52:51.331Z,10.10
2018-05-02T08:55:19.878Z,9.67
2018-05-02T08:57:47.614Z,8.30
2018-05-02T09:00:15.444Z,9.83
2018-05-02T09:02:43.377Z,8.87
2018-05-02T09:05:11.374Z,9.43
2018-05-02T09:07:39.570Z,8.13
2018-05-02T09:10:07.398Z,9.10
2018-05-02T09:12:35.313Z,9.93
2018-05-02T09:15:03.216Z,8.93
2018-05-02T09:17:31.855Z,10.07
2018-05-02T09:20:00.238Z,9.67
2018-05-02T09:22:31.550Z,9.13
2018-05-02T09:24:59.383Z,9.47
2018-05-02T09:27:27.914Z,9.83
2018-05-02T09:29:56.089Z,9.70
2018-05-02T09:32:24.807Z,9.90
2018-05-02T09:34:53.809Z,9.80
2018-05-02T09:37:21.609Z,10.00
2018-05-02T09:39:49.375Z,10.50
2018-05-02T09:42:17.231Z,13.10
2018-05-02T09:44:45.216Z,12.80
2018-05-02T09:47:13.702Z,11.13
2018-05-02T09:49:41.529Z,9.93
2018-05-02T09:52:10.219Z,10.60
2018-05-02T09:54:38.209Z,9.60
2018-05-02T09:57:06.987Z,9.63
2018-05-02T09:59:34.640Z,9.13
2018-05-02T10:02:02.287Z,10.80
2018-05-02T10:04:30.731Z,9.80
2018-05-02T10:06:58.539Z,8.93
2018-05-02T10:09:26.499Z,9.70
2018-05-02T10:11:55.139Z,9.83
2018-05-02T10:14:23.309Z,10.00
2018-05-02T10:16:51.105Z,10.50
2018-05-02T10:19:19.576Z,9.57
2018-05-02T10:21:48.304Z,10.60
2018-05-02T10:24:17.338Z,10.00
2018-05-02T10:26:46.181Z,9.67
2018-05-02T10:29:14.920Z,10.27
2018-05-02T10:31:42.826Z,9.37
2018-05-02T10:34:10.757Z,9.30
2018-05-02T10:36:38.667Z,10.30
2018-05-02T10:39:06.708Z,9.17
2018-05-02T10:41:35.167Z,9.77
2018-05-02T10:44:04.324Z,9.13
2018-05-02T10:46:32.321Z,9.77
2018-05-02T10:49:00.111Z,8.30
2018-05-02T10:51:27.864Z,8.50
2018-05-02T10:53:55.772Z,8.60
2018-05-02T10:56:24.144Z,9.00
2018-05-02T10:58:52.399Z,8.20
2018-05-02T11:01:21.308Z,8.80
2018-05-02T11:03:48.957Z,8.63
2018-05-02T11:06:18.734Z,8.20
2018-05-02T11:08:47.818Z,8.27
2018-05-02T11:11:15.786Z,8.67
2018-05-02T11:13:43.955Z,8.43
2018-05-02T11:16:14.394Z,8.73
2018-05-02T11:18:43.073Z,8.50
2018-05-02T11:21:11.505Z,8.30
2018-05-02T11:23:39.528Z,8.50
2018-05-02T11:26:08.805Z,7.60
2018-05-02T11:28:36.759Z,8.30
2018-05-02T11:31:05.649Z,8.17
2018-05-02T11:33:33.409Z,8.13
2018-05-02T11:36:02.175Z,8.07
2018-05-02T11:38:31.343Z,8.00
2018-05-02T11:40:59.211Z,7.07
2018-05-02T11:43:27.341Z,9.10
2018-05-02T11:45:55.036Z,9.03
2018-05-02T11:48:24.208Z,7.80
2018-05-02T11:50:52.471Z,8.13
2018-05-02T11:53:21.848Z,6.80
2018-05-02T11:55:49.979Z,7.07
2018-05-02T11:58:18.018Z,7.57
2018-05-02T12:00:46.088Z,7.20
2018-05-02T12:03:14.356Z,7.20
2018-05-02T12:05:42.163Z,7.70
2018-05-02T12:08:10.256Z,7.60
2018-05-02T12:10:37.989Z,8.17
2018-05-02T12:13:07.037Z,8.50
2018-05-02T12:15:36.415Z,7.30
2018-05-02T12:18:06.222Z,8.40
2018-05-02T12:20:34.404Z,7.50
2018-05-02T12:23:03.044Z,8.60
2018-05-02T12:25:31.878Z,8.93
2018-05-02T12:28:01.120Z,8.37
2018-05-02T12:30:29.230Z,8.40
2018-05-02T12:32:58.799Z,8.50
2018-05-02T12:35:27.324Z,7.90
2018-05-02T12:37:56.676Z,8.73
2018-05-02T12:40:25.572Z,8.40
2018-05-02T12:42:54.840Z,7.93
2018-05-02T12:45:23.234Z,8.20
2018-05-02T12:47:51.182Z,8.30
2018-05-02T12:50:19.704Z,8.57
2018-05-02T12:52:48.487Z,9.20
2018-05-02T12:55:16.693Z,9.27
2018-05-02T12:57:44.683Z,8.80
2018-05-02T13:00:12.325Z,8.30
2018-05-02T13:02:40.224Z,7.70
2018-05-02T13:05:07.972Z,8.50
2018-05-02T13:07:36.538Z,7.73
2018-05-02T13:10:05.146Z,7.70
2018-05-02T13:12:33.337Z,8.70
2018-05-02T13:15:01.225Z,8.40
2018-05-02T13:17:30.247Z,8.90
2018-05-02T13:19:59.149Z,8.20
2018-05-02T13:22:27.718Z,8.03
2018-05-02T13:24:55.586Z,8.37
2018-05-02T13:27:23.314Z,7.80
2018-05-02T13:29:51.987Z,8.80
2018-05-02T13:32:20.185Z,9.77
2018-05-02T13:34:48.249Z,8.50
2018-05-02T13:37:17.445Z,7.80
2018-05-02T13:39:46.288Z,8.77
2018-05-02T13:42:14.073Z,8.63
2018-05-02T13:44:41.838Z,8.87
2018-05-02T13:47:11.658Z,8.40
2018-05-02T13:49:40.680Z,8.60
2018-05-02T13:52:08.658Z,9.00
2018-05-02T13:54:37.183Z,8.20
2018-05-02T13:57:05.259Z,8.57
2018-05-02T13:59:33.060Z,8.10
2018-05-02T14:02:00.927Z,8.63
2018-05-02T14:04:28.723Z,8.70
2018-05-02T14:06:57.850Z,9.03
2018-05-02T14:09:26.192Z,9.17
2018-05-02T14:11:54.753Z,8.40
2018-05-02T14:14:23.373Z,8.50
2018-05-02T14:16:52.027Z,8.60
2018-05-02T14:19:20.238Z,8.77
2018-05-02T14:21:48.765Z,10.10
2018-05-02T14:24:17.681Z,8.73
2018-05-02T14:26:46.438Z,8.70
2018-05-02T14:29:14.539Z,9.23
2018-05-02T14:31:42.383Z,9.27
2018-05-02T14:34:10.430Z,8.07
2018-05-02T14:36:38.128Z,8.30
2018-05-02T14:39:06.702Z,9.17
2018-05-02T14:41:35.503Z,9.40
2018-05-02T14:44:03.708Z,8.93
2018-05-02T14:46:33.826Z,9.40
2018-05-02T14:49:02.137Z,10.40
2018-05-02T14:54:09.404Z,9.93
2018-05-02T14:56:38.229Z,8.17
2018-05-02T14:59:06.525Z,9.30
2018-05-02T15:01:36.278Z,8.60
2018-05-02T15:04:05.670Z,9.03
2018-05-02T15:06:34.164Z,9.27
2018-05-02T15:09:03.277Z,8.50
2018-05-02T15:11:31.582Z,9.10
2018-05-02T15:13:59.576Z,9.93
2018-05-02T15:16:27.754Z,9.63
2018-05-02T15:18:55.914Z,9.87
2018-05-02T15:21:25.141Z,9.63
2018-05-02T15:23:54.653Z,9.53
2018-05-02T15:26:22.637Z,9.30
2018-05-02T15:28:51.372Z,8.63
2018-05-02T15:31:19.269Z,8.70
2018-05-02T15:33:47.880Z,8.50
2018-05-02T15:36:16.330Z,8.13
2018-05-02T15:38:45.599Z,8.30
2018-05-02T15:41:13.370Z,8.50
2018-05-02T15:43:41.147Z,9.40
2018-05-02T15:46:09.194Z,8.60
2018-05-02T15:48:37.151Z,8.57
2018-05-02T15:51:05.236Z,9.53
2018-05-02T15:53:34.224Z,9.00
2018-05-02T15:56:02.214Z,9.00
2018-05-02T15:58:30.905Z,9.20
2018-05-02T16:00:58.824Z,9.23
2018-05-02T16:03:26.507Z,8.70
2018-05-02T16:05:56.446Z,9.83
2018-05-02T16:08:24.488Z,8.57
2018-05-02T16:10:52.612Z,9.73
2018-05-02T16:13:21.203Z,9.87
2018-05-02T16:15:49.050Z,8.83
2018-05-02T16:18:17.561Z,9.70
2018-05-02T16:20:45.758Z,8.80
2018-05-02T16:23:14.390Z,9.23
2018-05-02T16:25:42.126Z,9.00
2018-05-02T16:28:10.979Z,8.30
2018-05-02T16:30:39.614Z,9.70
2018-05-02T16:33:08.019Z,8.77
2018-05-02T16:35:37.514Z,9.93
2018-05-02T16:38:06.283Z,9.00
2018-05-02T16:40:35.081Z,9.73
2018-05-02T16:43:02.972Z,9.47
2018-05-02T16:45:31.844Z,9.27
2018-05-02T16:48:01.557Z,10.30
2018-05-02T16:50:31.431Z,10.40
2018-05-02T16:53:00.421Z,10.17
2018-05-02T16:55:28.679Z,10.63
2018-05-02T16:57:58.333Z,10.57
2018-05-02T17:00:28.513Z,10.30
2018-05-02T17:03:03.938Z,10.60
2018-05-02T17:05:33.924Z,11.53
2018-05-02T17:08:05.223Z,10.47
2018-05-02T17:10:34.990Z,10.60
2018-05-02T17:13:04.625Z,10.60
2018-05-02T17:15:33.485Z,10.43
2018-05-02T17:18:01.458Z,11.73
2018-05-02T17:20:29.407Z,9.83
2018-05-02T17:22:57.379Z,11.10
2018-05-02T17:25:25.242Z,9.70
2018-05-02T17:27:53.677Z,10.30
2018-05-02T17:30:21.617Z,11.00
2018-05-02T17:32:49.736Z,10.37
2018-05-02T17:35:18.885Z,10.37
2018-05-02T17:37:48.118Z,9.70
2018-05-02T17:40:15.987Z,9.53
2018-05-02T17:42:43.804Z,10.67
2018-05-02T17:45:12.331Z,9.83
2018-05-02T17:47:40.907Z,9.70
2018-05-02T17:50:08.797Z,10.13
2018-05-02T17:52:36.643Z,11.23
2018-05-02T17:55:05.701Z,11.13
2018-05-02T17:57:33.854Z,10.43
2018-05-02T18:00:02.241Z,12.30
2018-05-02T18:02:30.430Z,11.77
2018-05-02T18:04:58.449Z,11.00
2018-05-02T18:07:26.392Z,10.30
2018-05-02T18:09:54.317Z,9.57
2018-05-02T18:12:22.320Z,11.00
2018-05-02T18:14:51.120Z,10.90
2018-05-02T18:17:19.268Z,11.70
2018-05-02T18:19:47.592Z,10.80
2018-05-02T18:22:15.402Z,11.27
2018-05-02T18:24:43.581Z,10.70
2018-05-02T18:27:11.478Z,10.90
2018-05-02T18:29:39.635Z,11.30
2018-05-02T18:32:09.670Z,10.70
2018-05-02T18:34:37.723Z,10.70
2018-05-02T18:37:06.600Z,10.37
2018-05-02T18:39:34.810Z,10.33
2018-05-02T18:42:02.711Z,9.87
2018-05-02T18:44:30.312Z,10.10
2018-05-02T18:46:59.129Z,11.00
2018-05-02T18:49:28.195Z,10.50
2018-05-02T18:51:55.996Z,11.47
2018-05-02T18:54:24.796Z,10.87
2018-05-02T18:56:52.757Z,11.80
2018-05-02T18:59:20.580Z,11.10
2018-05-02T19:01:49.449Z,11.30
2018-05-02T19:04:17.467Z,10.80
2018-05-02T19:06:45.841Z,11.20
2018-05-02T19:09:14.404Z,12.33
2018-05-02T19:11:43.052Z,12.60
2018-05-02T19:14:11.417Z,12.70
2018-05-02T19:16:39.891Z,12.70
2018-05-02T19:19:08.598Z,13.10
2018-05-02T19:21:36.429Z,12.53
2018-05-02T19:24:04.488Z,13.47
2018-05-02T19:26:32.306Z,13.97
2018-05-02T19:29:00.180Z,13.20
2018-05-02T19:31:28.020Z,14.00
2018-05-02T19:33:56.269Z,13.80
2018-05-02T19:36:24.179Z,12.93
2018-05-02T19:38:52.001Z,12.20
2018-05-02T19:41:20.574Z,12.53
2018-05-02T19:43:49.073Z,12.70
2018-05-02T19:46:17.568Z,11.70
2018-05-02T19:48:46.508Z,12.93
2018-05-02T19:51:14.109Z,12.80
2018-05-02T19:53:41.749Z,13.40
2018-05-02T19:56:09.422Z,13.50
2018-05-02T19:58:37.380Z,13.57
2018-05-02T20:01:05.173Z,13.63
2018-05-02T20:03:32.962Z,14.07
2018-05-02T20:06:01.496Z,13.97
2018-05-02T20:08:29.435Z,12.57
2018-05-02T20:10:57.331Z,13.47
2018-05-02T20:13:25.100Z,13.00
2018-05-02T20:38:46.021Z,12.00
2018-05-02T20:41:14.355Z,12.57
2018-05-02T20:43:42.634Z,12.80
2018-05-02T20:46:10.925Z,12.17
2018-05-02T20:48:38.895Z,11.60
2018-05-02T20:51:06.705Z,13.23
2018-05-02T20:53:34.278Z,11.30
2018-05-02T20:56:02.040Z,12.10
2018-05-02T20:58:29.836Z,12.77
2018-05-02T21:00:57.597Z,13.20
2018-05-02T21:03:25.390Z,12.33
2018-05-02T21:05:54.190Z,12.03
2018-05-02T21:08:21.804Z,12.20
2018-05-02T21:10:50.100Z,12.63
2018-05-02T21:13:19.071Z,13.17
2018-05-02T21:15:47.157Z,13.10
2018-05-02T21:18:15.298Z,12.80
2018-05-02T21:20:43.285Z,12.33
2018-05-02T21:23:12.387Z,12.27
2018-05-02T21:25:41.381Z,11.30
2018-05-02T21:28:09.946Z,12.03
2018-05-02T21:30:38.793Z,11.70
2018-05-02T21:33:06.823Z,11.00
2018-05-02T21:35:35.387Z,11.30
2018-05-02T21:38:03.571Z,11.83
2018-05-02T21:40:31.596Z,13.20
2018-05-02T21:43:00.536Z,12.20
2018-05-02T21:45:29.531Z,11.57
2018-05-02T21:47:57.329Z,11.07
2018-05-02T21:50:26.196Z,12.00
2018-05-02T21:52:54.844Z,12.17
2018-05-02T21:55:23.261Z,11.40
2018-05-02T21:57:51.547Z,10.97
2018-05-02T22:00:20.280Z,10.20
2018-05-02T22:02:48.739Z,11.13
2018-05-02T22:05:17.787Z,12.13
2018-05-02T22:07:46.280Z,13.17
2018-05-02T22:10:15.289Z,15.83
2018-05-02T22:12:43.574Z,64.77
2018-05-02T22:15:12.292Z,34.50
2018-05-02T22:17:40.765Z,71.33
2018-05-02T22:20:09.565Z,37.77
2018-05-02T22:22:37.520Z,37.97
2018-05-02T22:25:05.263Z,47.20
2018-05-02T22:27:33.692Z,44.53
2018-05-02T22:30:02.336Z,44.90
2018-05-02T22:32:33.179Z,51.90
2018-05-02T22:35:01.184Z,72.63
2018-05-02T22:37:30.163Z,45.90
2018-05-02T22:39:58.624Z,42.33
2018-05-02T22:42:26.908Z,44.00
2018-05-02T22:44:54.790Z,48.57
2018-05-02T22:47:22.686Z,37.67
2018-05-02T22:49:50.667Z,38.27
2018-05-02T22:52:19.399Z,38.10
2018-05-02T22:54:47.513Z,37.90
2018-05-02T22:57:15.338Z,40.37
2018-05-02T22:59:43.441Z,39.33
2018-05-02T23:02:11.604Z,39.43
2018-05-02T23:04:39.399Z,41.30
2018-05-02T23:07:07.386Z,37.50
2018-05-02T23:09:35.268Z,39.57
2018-05-02T23:12:04.761Z,36.87
2018-05-02T23:14:32.669Z,36.20
2018-05-02T23:17:01.290Z,37.40
2018-05-02T23:19:29.326Z,35.50
2018-05-02T23:21:57.693Z,194.03
2018-05-02T23:24:25.783Z,55.30
2018-05-02T23:26:53.884Z,50.63
2018-05-02T23:29:21.946Z,44.40
2018-05-02T23:31:50.441Z,43.13
2018-05-02T23:34:18.663Z,42.10
2018-05-02T23:36:46.462Z,39.57
2018-05-02T23:39:14.510Z,40.20
2018-05-02T23:41:42.886Z,38.93
2018-05-02T23:44:11.104Z,38.10
2018-05-02T23:46:40.172Z,36.77
2018-05-02T23:49:09.430Z,35.87
2018-05-02T23:51:38.744Z,33.37
2018-05-02T23:54:06.859Z,33.63
2018-05-02T23:56:35.872Z,36.13
2018-05-02T23:59:03.946Z,34.67
